Date,TemperatureHighF,TemperatureAvgF,TemperatureLowF,DewpointHighF,DewpointAvgF,DewpointLowF,HumidityHigh,HumidityAvg,HumidityLow,PressureMaxIn,PressureMinIn,WindSpeedMaxMPH,WindSpeedAvgMPH,GustSpeedMaxMPH,PrecipitationSumIn
2013-1-1,58,41,31,38,35,30,98,81,40,0.00,40.00,10,5,14,0.01
2013-1-2,61,42,31,39,31,27,94,70,29,0.00,40.00,14,8,19,0.00
2013-1-3,55,42,35,41,34,24,94,75,34,0.00,40.00,11,6,17,0.00
2013-1-4,60,44,34,47,39,34,98,83,47,0.00,40.00,11,4,16,0.00
2013-1-5,48,43,38,44,39,35,98,87,71,0.00,40.00,11,6,17,0.44
2013-1-6,53,45,41,45,42,40,99,90,69,0.00,40.00,9,4,15,0.20
2013-1-7,56,47,41,49,45,40,99,91,74,0.00,40.00,14,5,23,0.00
2013-1-8,62,50,46,48,46,44,98,87,60,0.00,40.00,7,4,12,0.00
2013-1-9,49,44,36,47,42,35,99,94,84,0.00,40.00,15,5,28,0.05
2013-1-10,46,38,33,39,34,31,98,87,59,0.00,40.00,15,6,24,0.11
2013-1-11,48,38,29,39,33,28,96,85,61,0.00,40.00,14,4,21,0.01
2013-1-12,48,36,28,36,30,21,97,80,35,0.00,40.00,10,3,15,0.01
2013-1-13,52,36,27,35,28,24,92,74,34,0.00,40.00,9,4,15,0.00
2013-1-14,55,38,27,35,28,22,91,71,29,0.00,40.00,11,5,16,0.00
2013-1-15,61,42,30,41,34,27,94,77,35,0.00,40.00,10,5,16,0.00
2013-1-16,61,42,31,43,36,30,95,82,47,0.00,40.00,9,5,14,0.00
2013-1-17,64,45,33,43,36,30,94,76,40,0.00,40.00,9,4,16,0.00
2013-1-18,67,46,33,44,34,25,83,64,37,0.00,40.00,12,4,18,0.00
2013-1-19,72,47,33,42,31,25,81,58,19,0.00,40.00,13,6,20,0.00
2013-1-20,69,46,33,40,32,25,78,60,32,0.00,40.00,11,4,19,0.00
2013-1-21,69,48,33,40,33,28,83,60,27,0.00,40.00,14,6,20,0.00
2013-1-22,66,52,40,35,30,24,74,46,22,0.00,40.00,17,11,25,0.00
2013-1-23,57,52,48,48,40,28,95,67,35,0.00,40.00,17,10,25,0.34
2013-1-24,58,52,47,54,50,46,99,92,79,0.00,40.00,5,2,9,0.06
2013-1-25,58,53,49,53,51,48,98,93,78,0.00,40.00,7,3,11,0.01
2013-1-26,52,47,42,48,42,35,99,84,56,0.00,40.00,16,7,25,0.01
2013-1-27,51,42,32,40,36,31,96,79,52,0.00,40.00,17,7,25,0.01
2013-1-28,51,44,38,42,38,35,97,82,58,0.00,40.00,18,8,28,0.00
2013-1-29,56,46,40,41,40,37,94,80,58,0.00,40.00,14,7,21,0.00
2013-1-30,62,46,35,47,40,34,98,83,46,0.00,40.00,6,4,10,0.00
2013-1-31,68,52,37,50,42,35,95,72,41,0.00,40.00,12,6,16,0.00
2013-2-1,71,51,37,50,40,35,95,71,30,0.00,40.00,13,6,18,0.00
2013-2-2,58,46,38,47,42,37,97,87,65,0.00,40.00,13,5,18,0.00
2013-2-3,57,48,44,45,44,43,97,86,63,0.00,40.00,10,5,15,0.00
2013-2-4,59,46,39,46,43,38,98,89,60,0.00,40.00,9,5,15,0.00
2013-2-5,54,46,43,47,43,41,98,89,72,0.00,40.00,13,6,21,0.00
2013-2-6,55,45,39,46,39,36,98,83,53,0.00,40.00,11,5,16,0.00
2013-2-7,51,44,37,44,39,32,97,83,52,0.00,40.00,11,5,20,0.11
2013-2-8,53,41,35,39,36,33,98,83,51,0.00,40.00,15,5,21,0.02
2013-2-9,58,40,28,40,32,27,97,77,34,0.00,40.00,7,3,12,0.00
2013-2-10,63,46,32,42,35,30,91,70,37,0.00,40.00,10,6,16,0.00
2013-2-11,66,47,33,41,34,30,92,67,26,0.00,40.00,9,5,15,0.00
2013-2-12,63,45,34,44,37,32,95,75,32,0.00,40.00,11,6,17,0.00
2013-2-13,65,46,33,45,39,32,96,79,39,0.00,40.00,10,4,14,0.00
2013-2-14,74,53,37,49,43,36,97,73,38,0.00,40.00,9,4,16,0.00
2013-2-15,75,54,39,46,38,33,81,59,22,0.00,40.00,10,5,17,0.00
2013-2-16,70,50,39,45,40,36,97,71,33,0.00,40.00,12,6,19,0.00
2013-2-17,61,46,37,42,38,36,98,80,43,0.00,40.00,10,4,14,0.00
2013-2-18,51,43,39,40,38,35,94,81,57,0.00,40.00,13,6,20,0.00
2013-2-19,45,40,34,40,36,30,96,84,60,0.00,40.00,16,7,32,0.26
2013-2-20,53,40,27,38,33,26,96,80,50,0.00,40.00,15,6,24,0.01
2013-2-21,56,43,33,40,35,32,97,75,44,0.00,40.00,13,5,22,0.00
2013-2-22,58,45,35,42,38,34,96,78,43,0.00,40.00,14,5,20,0.00
2013-2-23,53,45,36,43,36,31,98,73,46,0.00,40.00,18,9,27,0.01
2013-2-24,60,43,29,37,33,28,96,72,31,0.00,40.00,12,5,17,0.00
2013-2-25,62,45,36,42,36,30,97,74,30,0.00,40.00,16,6,25,0.00
2013-2-26,66,44,30,39,32,29,96,70,26,0.00,40.00,12,4,19,0.00
2013-2-27,65,47,31,46,37,30,96,74,37,0.00,40.00,14,5,23,0.01
2013-2-28,65,54,45,52,48,44,98,83,59,0.00,40.00,12,5,20,0.01
2013-3-1,70,55,46,52,46,40,98,76,33,0.00,40.00,11,6,15,0.00
2013-3-2,63,53,45,51,46,43,92,80,60,0.00,40.00,9,6,16,0.00
2013-3-3,64,52,45,49,44,40,97,78,45,0.00,40.00,15,6,23,0.00
2013-3-4,57,46,38,48,41,35,98,84,57,0.00,40.00,13,5,17,0.00
2013-3-5,51,44,36,46,40,34,94,85,68,0.00,40.00,19,10,36,1.30
2013-3-6,51,46,36,45,39,34,96,78,59,0.00,40.00,15,7,30,1.33
2013-3-7,52,43,34,41,36,32,97,78,47,0.00,40.00,11,6,20,0.02
2013-3-8,55,42,31,41,36,30,97,82,53,0.00,40.00,17,6,27,0.00
2013-3-9,65,47,32,43,37,31,97,72,34,0.00,40.00,13,5,20,0.00
2013-3-10,71,52,35,44,38,31,95,65,23,0.00,40.00,13,5,19,0.00
2013-3-11,69,52,38,47,42,37,95,73,43,0.00,40.00,13,5,20,0.00
2013-3-12,70,51,38,51,44,37,98,80,42,0.00,40.00,13,4,20,0.00
2013-3-13,79,54,38,57,45,37,98,76,34,0.00,40.00,14,5,21,0.00
2013-3-14,67,52,43,51,44,38,98,78,35,0.00,40.00,11,5,18,0.00
2013-3-15,69,51,42,50,45,41,98,83,45,0.00,40.00,18,5,31,0.00
2013-3-16,66,50,40,50,42,39,98,77,40,0.00,40.00,16,6,24,0.00
2013-3-17,63,49,41,44,40,34,96,73,37,0.00,40.00,15,6,22,0.00
2013-3-18,63,48,35,42,38,34,95,70,39,0.00,40.00,10,4,17,0.00
2013-3-19,53,47,41,50,42,34,91,81,48,0.00,40.00,14,6,19,0.12
2013-3-20,60,50,45,52,47,41,94,88,74,0.00,40.00,14,9,21,0.40
2013-3-21,57,46,38,42,37,34,95,74,47,0.00,40.00,15,9,24,0.01
2013-3-22,58,45,33,37,33,29,95,69,34,0.00,40.00,17,6,25,0.00
2013-3-23,63,46,32,39,35,31,96,69,33,0.00,40.00,13,4,19,0.00
2013-3-24,69,49,36,42,38,34,93,69,36,0.00,40.00,13,5,17,0.00
2013-3-25,56,45,40,45,40,39,97,84,60,0.00,40.00,13,6,20,0.00
2013-3-26,67,52,41,47,42,39,92,72,45,0.00,40.00,13,5,20,0.00
2013-3-27,61,52,46,50,46,41,93,79,62,0.00,40.00,10,6,15,0.00
2013-3-28,59,57,48,54,49,46,93,76,63,0.00,40.00,14,6,22,0.00
2013-3-29,75,57,41,56,46,40,97,72,33,0.00,40.00,13,5,22,0.00
2013-3-30,67,58,53,53,50,45,92,75,46,0.00,40.00,15,6,24,0.02
2013-3-31,62,54,50,53,50,48,96,87,65,0.00,40.00,12,6,22,0.30
2013-4-1,64,53,46,52,48,45,99,83,62,0.00,40.00,12,4,17,0.02
2013-4-2,69,54,47,55,47,43,97,80,44,0.00,40.00,12,5,19,0.00
2013-4-3,75,56,44,57,47,43,99,78,34,0.00,40.00,14,6,22,0.00
2013-4-4,63,55,49,54,50,44,95,85,68,0.00,40.00,11,7,16,0.61
2013-4-5,63,55,51,53,50,47,97,82,64,0.00,40.00,10,5,21,0.01
2013-4-6,65,56,51,52,48,42,96,77,48,0.00,40.00,11,6,18,0.01
2013-4-7,60,53,44,54,47,40,97,82,58,0.00,40.00,21,6,36,0.10
2013-4-8,59,49,41,40,37,34,89,64,45,0.00,40.00,21,12,36,0.09
2013-4-9,69,50,37,44,39,36,97,71,35,0.00,40.00,16,5,23,0.00
2013-4-10,74,57,42,53,47,39,94,70,45,0.00,40.00,17,7,26,0.00
2013-4-11,63,54,45,48,43,39,92,69,46,0.00,40.00,20,10,30,0.00
2013-4-12,68,52,43,47,43,39,95,74,43,0.00,40.00,15,7,22,0.00
2013-4-13,59,50,40,46,40,35,97,72,48,0.00,40.00,19,10,30,0.00
2013-4-14,61,46,38,43,36,27,96,70,33,0.00,40.00,16,8,25,0.00
2013-4-15,54,45,36,42,35,32,95,69,46,0.00,40.00,22,12,36,0.00
2013-4-16,60,46,33,40,34,30,93,66,37,0.00,40.00,17,7,26,0.00
2013-4-17,65,49,34,42,36,33,95,66,32,0.00,40.00,16,6,24,0.00
2013-4-18,72,54,38,44,40,35,93,65,31,0.00,40.00,12,5,22,0.00
2013-4-19,73,55,42,50,45,40,95,71,37,0.00,40.00,17,7,27,0.00
2013-4-20,73,56,43,47,43,40,96,67,34,0.00,40.00,13,6,20,0.00
2013-4-21,81,60,41,50,43,39,93,59,28,0.00,40.00,14,5,19,0.00
2013-4-22,88,64,45,57,44,34,91,54,17,0.00,40.00,15,5,22,0.00
2013-4-23,81,64,47,41,35,24,70,39,12,0.00,40.00,14,8,22,0.00
2013-4-24,84,59,42,44,38,28,92,52,17,0.00,40.00,14,6,23,0.00
2013-4-25,71,54,46,50,46,42,93,76,45,0.00,40.00,14,6,20,0.00
2013-4-26,72,56,47,53,48,45,96,77,45,0.00,40.00,12,6,19,0.00
2013-4-27,78,58,44,52,46,44,99,72,31,0.00,40.00,14,5,20,0.00
2013-4-28,82,61,42,54,44,40,98,61,26,0.00,40.00,12,5,19,0.00
2013-4-29,75,60,47,49,45,40,86,60,37,0.00,40.00,20,8,30,0.00
2013-4-30,72,59,46,42,38,33,84,50,30,0.00,40.00,13,8,22,0.00
2013-5-1,87,70,41,43,31,16,85,31,8,0.00,40.00,11,5,20,0.00
2013-5-2,90,69,47,45,30,19,54,28,9,0.00,40.00,13,6,22,0.00
2013-5-3,94,67,46,42,34,28,54,33,13,0.00,40.00,15,5,22,0.00
2013-5-4,89,69,51,47,38,21,65,37,9,0.00,40.00,15,6,24,0.00
2013-5-5,62,57,53,48,46,40,77,66,44,0.00,40.00,16,12,29,0.00
2013-5-6,67,58,52,57,51,43,97,79,45,0.00,40.00,8,3,15,0.15
2013-5-7,68,58,50,54,50,47,98,76,54,0.00,40.00,14,6,20,0.01
2013-5-8,67,55,49,52,48,46,98,80,52,0.00,40.00,15,7,21,0.00
2013-5-9,69,55,49,53,48,46,92,79,56,0.00,40.00,15,8,21,0.00
2013-5-10,79,58,48,55,48,-100,97,75,44,0.00,40.00,16,7,24,0.00
2013-5-11,88,65,47,59,50,45,96,65,31,0.00,40.00,14,6,21,0.00
2013-5-12,79,62,48,59,51,43,95,70,31,0.00,40.00,13,6,20,0.00
2013-5-13,76,61,51,56,50,43,93,69,41,0.00,40.00,18,9,30,0.00
2013-5-14,72,58,46,49,45,41,95,65,36,0.00,40.00,19,9,27,0.00
2013-5-15,68,54,42,48,42,37,94,68,35,0.00,40.00,19,8,28,0.00
2013-5-16,65,54,51,52,33,-100,90,73,50,0.00,40.00,14,9,24,0.00
2013-5-17,66,55,49,48,40,-100,89,66,39,0.00,40.00,16,9,25,0.00
2013-5-18,70,58,49,49,46,41,89,68,38,0.00,40.00,18,10,28,0.00
2013-5-19,77,61,47,48,46,43,91,62,31,0.00,40.00,13,7,21,0.00
2013-5-20,84,63,46,51,43,33,91,57,16,0.00,40.00,16,7,24,0.00
2013-5-21,62,54,44,47,42,36,90,65,48,0.00,40.00,18,13,29,0.00
2013-5-22,58,49,40,40,36,33,83,63,40,0.00,40.00,20,13,32,0.00
2013-5-23,63,52,42,42,39,38,91,66,41,0.00,40.00,17,10,27,0.00
2013-5-24,65,52,40,44,40,39,95,68,43,0.00,40.00,18,8,24,0.00
2013-5-25,66,53,41,47,42,39,94,69,40,0.00,40.00,16,9,25,0.00
2013-5-26,68,57,50,53,47,40,98,72,37,0.00,40.00,16,9,26,0.01
2013-5-27,60,54,48,55,51,45,97,90,80,0.00,40.00,6,3,13,0.20
2013-5-28,70,59,53,55,52,47,98,79,51,0.00,40.00,13,6,21,0.14
2013-5-29,67,57,51,53,50,45,98,78,54,0.00,40.00,17,9,26,0.05
2013-5-30,69,57,48,47,45,41,88,65,41,0.00,40.00,17,10,26,0.02
2013-5-31,78,60,42,49,43,39,95,60,27,0.00,40.00,16,7,22,0.00
2013-6-1,82,61,45,50,37,-100,87,49,23,0.00,40.00,17,8,28,0.00
2013-6-2,78,63,51,53,49,46,91,64,38,0.00,40.00,14,9,20,0.00
2013-6-3,83,64,50,55,51,47,93,65,39,0.00,40.00,15,7,21,0.00
2013-6-4,80,60,48,55,50,46,95,74,41,0.00,40.00,16,7,21,0.00
2013-6-5,82,62,50,57,51,48,96,71,43,0.00,40.00,16,6,21,0.00
2013-6-6,85,62,46,56,50,45,97,69,32,0.00,40.00,15,5,23,0.00
2013-6-7,99,72,48,58,50,43,96,57,16,0.00,40.00,14,5,21,0.00
2013-6-8,107,79,59,61,53,43,73,46,13,0.00,40.00,13,5,19,0.00
2013-6-9,73,63,53,56,52,50,89,68,51,0.00,40.00,14,9,20,0.00
2013-6-10,63,57,53,56,52,50,97,85,69,0.00,40.00,11,6,16,0.06
2013-6-11,76,62,52,56,49,42,92,66,37,0.00,40.00,15,8,22,0.06
2013-6-12,70,56,44,47,44,41,94,65,40,0.00,40.00,18,10,30,0.00
2013-6-13,70,57,45,46,44,42,90,64,39,0.00,40.00,17,10,27,0.00
2013-6-14,82,63,45,49,43,40,91,56,24,0.00,40.00,15,6,23,0.00
2013-6-15,78,61,44,50,46,41,95,63,30,0.00,40.00,16,6,24,0.00
2013-6-16,77,62,49,50,48,45,93,64,35,0.00,40.00,17,9,25,0.00
2013-6-17,73,59,49,52,49,45,91,72,46,0.00,40.00,17,8,26,0.00
2013-6-18,67,58,52,51,46,41,84,66,41,0.00,40.00,19,12,30,0.00
2013-6-19,68,58,48,49,46,43,93,67,43,0.00,40.00,18,10,27,0.00
2013-6-20,71,55,48,50,46,43,91,76,37,0.00,40.00,12,6,20,0.00
2013-6-22,79,68,53,55,48,42,88,52,27,0.00,40.00,18,12,28,0.00
2013-6-23,72,62,57,60,56,54,95,81,56,0.00,40.00,11,7,16,0.00
2013-6-24,62,58,55,55,54,51,97,86,67,0.00,40.00,12,6,20,0.06
2013-6-25,67,61,57,63,58,55,94,91,86,0.00,40.00,11,7,18,0.20
2013-6-26,80,68,61,62,60,56,95,76,51,0.00,40.00,10,7,15,0.01
2013-6-27,87,71,59,63,59,55,100,72,38,0.00,40.00,13,7,20,0.00
2013-6-28,95,75,57,62,56,50,96,58,26,0.00,40.00,14,7,22,0.00
2013-6-29,95,76,58,59,54,51,90,52,24,0.00,40.00,17,7,24,0.00
2013-6-30,93,73,56,60,56,52,93,58,31,0.00,40.00,14,7,21,0.00
2013-7-1,96,75,52,60,56,51,98,58,24,0.00,40.00,15,6,21,0.00
2013-7-2,99,78,63,64,60,52,87,58,31,0.00,40.00,13,6,19,0.00
2013-7-3,101,78,61,64,59,54,84,56,29,0.00,40.00,23,6,31,0.00
2013-7-4,94,78,60,67,54,40,93,51,18,0.00,40.00,18,9,28,0.01
2013-7-5,81,66,53,55,51,46,89,62,39,0.00,40.00,17,9,22,0.01
2013-7-6,87,66,51,57,51,48,89,62,35,0.00,40.00,16,5,22,0.00
2013-7-7,85,69,54,58,53,50,91,61,38,0.00,40.00,17,6,22,0.00
2013-7-8,83,63,49,56,52,48,97,71,35,0.00,40.00,17,5,22,0.00
2013-7-9,94,69,51,58,51,46,97,61,20,0.00,40.00,11,5,17,0.00
2013-7-10,88,67,53,57,47,-100,88,56,18,0.00,40.00,15,6,22,0.00
2013-7-11,84,63,46,53,49,45,100,68,32,0.00,40.00,18,6,25,0.00
2013-7-12,83,63,48,54,48,40,99,66,22,0.00,40.00,16,6,24,0.00
2013-7-13,89,70,50,52,46,39,86,50,21,0.00,40.00,15,6,23,0.00
2013-7-14,88,68,49,52,48,42,88,55,26,0.00,40.00,15,6,22,0.00
2013-7-15,84,60,46,54,49,45,96,73,35,0.00,40.00,14,6,19,0.00
2013-7-16,78,68,56,56,54,51,88,61,46,0.00,40.00,15,10,21,0.00
2013-7-17,83,65,55,57,53,50,91,70,41,0.00,40.00,17,8,22,0.00
2013-7-18,90,70,50,57,50,41,95,55,23,0.00,40.00,16,7,24,0.00
2013-7-19,88,66,49,56,52,49,100,67,32,0.00,40.00,15,6,22,0.00
2013-7-20,94,67,50,57,51,-100,99,64,29,0.00,40.00,14,6,21,0.00
2013-7-21,93,67,50,60,53,48,94,64,33,0.00,40.00,16,6,21,0.00
2013-7-22,88,68,48,56,50,44,94,59,28,0.00,40.00,14,8,25,0.00
2013-7-23,85,66,59,58,53,51,79,65,33,0.00,40.00,9,5,15,0.00
2013-7-24,90,73,56,59,51,45,90,53,22,0.00,40.00,15,6,20,0.00
2013-7-25,94,73,60,54,48,39,65,46,16,0.00,40.00,15,6,22,0.00
2013-7-26,90,67,53,57,52,50,89,63,27,0.00,40.00,14,6,23,0.00
2013-7-27,88,66,50,57,53,49,95,66,34,0.00,40.00,18,6,24,0.00
2013-7-28,85,64,49,56,50,46,99,67,32,0.00,40.00,15,6,21,0.00
2013-7-29,82,60,49,54,51,47,93,74,38,0.00,40.00,16,7,24,0.00
2013-7-30,81,63,51,56,52,48,97,71,39,0.00,40.00,17,6,25,0.00
2013-7-31,79,62,49,54,49,44,97,67,29,0.00,40.00,16,8,23,0.00
2013-8-1,74,63,53,51,50,47,88,64,39,0.00,40.00,16,10,25,0.00
2013-8-2,81,64,53,52,50,45,91,66,30,0.00,40.00,15,8,22,0.00
2013-8-3,82,62,49,55,51,47,96,70,32,0.00,40.00,15,5,24,0.00
2013-8-4,82,60,47,55,51,47,100,76,38,0.00,40.00,13,6,19,0.00
2013-8-5,80,59,50,54,51,49,99,79,41,0.00,40.00,12,6,19,0.00
2013-8-6,78,59,49,55,51,48,99,78,44,0.00,40.00,15,6,20,0.00
2013-8-7,73,62,54,55,52,49,86,71,54,0.00,40.00,12,7,20,0.00
2013-8-8,77,61,53,57,53,48,94,75,47,0.00,40.00,18,8,23,0.00
2013-8-9,83,62,52,56,52,49,94,75,35,0.00,40.00,15,8,22,0.00
2013-8-10,82,64,53,57,54,51,94,71,41,0.00,40.00,16,7,24,0.00
2013-8-11,85,66,53,59,52,46,100,68,27,0.00,40.00,15,7,25,0.00
2013-8-21,81,65,56,59,56,52,97,76,44,0.00,40.00,16,7,24,0.00
2013-8-22,78,63,54,57,54,50,97,76,47,0.00,40.00,14,7,19,0.00
2013-8-23,81,64,55,58,52,49,92,71,35,0.00,40.00,15,8,22,0.00
2013-8-24,80,64,51,55,53,51,99,71,40,0.00,40.00,16,6,24,0.00
2013-8-25,77,65,56,64,57,54,98,78,51,0.00,40.00,15,6,22,0.01
2013-8-26,78,66,54,57,52,49,94,65,38,0.00,40.00,16,7,24,0.00
2013-8-27,75,57,51,55,51,49,95,82,50,0.00,40.00,8,2,14,0.00
2013-9-24,72,61,52,54,50,48,94,71,42,0.00,40.00,19,9,29,0.00
2013-9-25,66,57,51,51,46,39,92,69,39,0.00,40.00,18,10,29,0.00
2013-9-26,70,55,40,45,41,38,94,64,32,0.00,40.00,17,6,27,0.00
2013-9-27,76,58,42,46,40,31,95,59,19,0.00,40.00,15,6,20,0.00
2013-9-28,80,59,44,56,46,39,87,66,26,0.00,40.00,15,5,23,0.00
2013-9-29,67,62,60,61,58,54,97,86,75,0.00,40.00,8,5,16,0.05
2013-9-30,69,62,53,62,56,43,97,82,43,0.00,40.00,12,6,20,0.08
2013-12-26,72,51,39,35,29,24,67,45,20,0.00,40.00,11,6,19,0.00
2013-12-27,55,46,38,34,30,26,71,53,40,0.00,40.00,11,4,16,0.00
2013-12-28,66,46,32,39,31,27,86,61,28,0.00,40.00,8,4,15,0.00
2013-12-29,71,50,38,30,27,23,64,44,17,0.00,40.00,12,5,19,0.00
2013-12-30,71,49,37,30,26,23,62,44,19,0.00,40.00,12,7,20,0.00
2013-12-31,59,46,38,41,36,27,92,70,51,0.00,40.00,10,4,15,0.00
2014-1-1,68,49,37,40,36,32,93,64,28,0.00,40.00,8,4,18,0.00